Accueil
METAR-TAF:

METAR-TAF

Aéroports :

Aérodrome de Gällivare

Gällivare, Suède

latitude: 67-09N, longitude: 020-39E, altitude: 359 m

Observation

Le bulletin a été fait il y a 27 minutes, à 14:50 UTC
Vent 13 kt de ouest/nord-ouest, variant entre ouest et nord/nord-ouest
Température 16°C
Humidité 42%
Pression 995 hPa
Visibilité 10 km ou plus
Quelques nuages à une hauteur de 4500 ft, Cumulonimbus.
Nuages épars à une hauteur de 4900 ft

METAR: ESNG 201450Z 30013KT 260V340 9999 FEW045CB SCT049 16/03 Q0995

Heure: 17:17 (15:17 UTC)

Prévision

Le bulletin a été fait il y a 47 minutes, à 14:30 UTC
Prévision valable du 20 à 15 UTC au 20 à 18 UTC
Vent 10 kt de ouest/nord-ouest
Visibilité 10 km ou plus
pas de nuages en-dessous de 1500 mètres et pas de cumulonimbus.

TAF: ESNG 201430Z 2015/2018 30010KT CAVOK

Observations et prévisions météorologiques de plus de 4000 aéroports (messages METAR et TAF).

Les stations disponibles sont représentées par des disques jaunes et rouges sur la carte.

Passer la souris dessus pour voir le nom de la station.

Cliquer dessus pour voir les observations et prévisions météorologiques.

Pour changer de carte: cliquez sur les boutons verts avec une croix noire pour zoomer, sur le bouton vert avec un tiret pour effectuer un zoom arrière, ou sur les flèches vertes pour les cartes adjacentes.


METAR-TAF: